Oxford, Canada
Current Conditions -  °F | °C
As of 11:00 AM on Friday 28 Nov 2014 (Local Time) from CYQM Reporting Station
Broken Clouds Broken Clouds  
Wind Chill: -11°   Ceiling: 3500
Heat Index: -6°   Visibility: 15mi
Dew Point: -10°   Wind: 7mph
Humidity: 74%   Direction: 300°WNW
Pressure: 29.98"   Gusts: NA
Location:  45.73°N, 63.87°W
Report Text: CYQM 281500Z 30006KT 15SM BKN035 M06/M10 A2998 RMK SC6 SLP156
Loading
Personal Weather Stations






























Interactive Weather Map New forecast layout! Learn more

10-Day Weather Forecast

Advertisements
Track Severe Weather on mobile